sensor_id;sensor_type;location;lat;lon;timestamp;P1;durP1;ratioP1;P2;durP2;ratioP2
81336;SDS011;70799;48.000;10.584;2023-11-21T00:00:10;3.10;;;0.73;;
81336;SDS011;70799;48.000;10.584;2023-11-21T00:02:47;4.95;;;1.00;;
81336;SDS011;70799;48.000;10.584;2023-11-21T00:05:23;8.43;;;1.02;;
81336;SDS011;70799;48.000;10.584;2023-11-21T00:07:59;5.93;;;1.05;;
81336;SDS011;70799;48.000;10.584;2023-11-21T00:10:36;3.75;;;0.77;;
81336;SDS011;70799;48.000;10.584;2023-11-21T00:13:12;5.20;;;1.10;;
81336;SDS011;70799;48.000;10.584;2023-11-21T00:15:49;8.90;;;0.77;;
81336;SDS011;70799;48.000;10.584;2023-11-21T00:18:25;5.10;;;0.80;;
81336;SDS011;70799;48.000;10.584;2023-11-21T00:21:02;8.05;;;1.13;;
81336;SDS011;70799;48.000;10.584;2023-11-21T00:23:38;7.72;;;0.95;;
81336;SDS011;70799;48.000;10.584;2023-11-21T00:26:14;3.67;;;1.00;;
81336;SDS011;70799;48.000;10.584;2023-11-21T00:29:01;3.95;;;0.95;;
81336;SDS011;70799;48.000;10.584;2023-11-21T00:31:40;10.82;;;1.63;;
81336;SDS011;70799;48.000;10.584;2023-11-21T00:34:17;6.15;;;1.00;;
81336;SDS011;70799;48.000;10.584;2023-11-21T00:39:29;4.25;;;0.73;;
81336;SDS011;70799;48.000;10.584;2023-11-21T00:42:05;6.10;;;1.13;;
81336;SDS011;70799;48.000;10.584;2023-11-21T00:44:42;3.97;;;0.75;;
81336;SDS011;70799;48.000;10.584;2023-11-21T00:49:55;6.13;;;1.77;;
81336;SDS011;70799;48.000;10.584;2023-11-21T00:52:32;3.72;;;0.77;;
81336;SDS011;70799;48.000;10.584;2023-11-21T00:55:09;5.97;;;0.80;;
81336;SDS011;70799;48.000;10.584;2023-11-21T00:57:45;3.03;;;0.60;;
81336;SDS011;70799;48.000;10.584;2023-11-21T01:00:21;6.22;;;1.13;;
81336;SDS011;70799;48.000;10.584;2023-11-21T01:05:34;3.63;;;0.60;;
81336;SDS011;70799;48.000;10.584;2023-11-21T01:08:10;4.03;;;0.88;;
81336;SDS011;70799;48.000;10.584;2023-11-21T01:10:47;4.60;;;0.90;;
81336;SDS011;70799;48.000;10.584;2023-11-21T01:13:23;3.92;;;0.77;;
81336;SDS011;70799;48.000;10.584;2023-11-21T01:16:02;3.90;;;0.30;;
81336;SDS011;70799;48.000;10.584;2023-11-21T01:18:39;1.92;;;0.50;;
81336;SDS011;70799;48.000;10.584;2023-11-21T01:21:17;6.47;;;0.93;;
81336;SDS011;70799;48.000;10.584;2023-11-21T01:23:53;4.85;;;0.50;;
81336;SDS011;70799;48.000;10.584;2023-11-21T01:26:30;3.15;;;0.57;;
81336;SDS011;70799;48.000;10.584;2023-11-21T01:29:06;5.60;;;0.75;;
81336;SDS011;70799;48.000;10.584;2023-11-21T01:34:19;2.15;;;0.40;;
81336;SDS011;70799;48.000;10.584;2023-11-21T01:36:55;5.03;;;0.60;;
81336;SDS011;70799;48.000;10.584;2023-11-21T01:39:31;0.90;;;0.40;;
81336;SDS011;70799;48.000;10.584;2023-11-21T01:42:09;5.22;;;0.70;;
81336;SDS011;70799;48.000;10.584;2023-11-21T01:44:46;3.00;;;0.65;;
81336;SDS011;70799;48.000;10.584;2023-11-21T01:47:22;1.48;;;0.40;;
81336;SDS011;70799;48.000;10.584;2023-11-21T01:49:58;3.13;;;0.60;;
81336;SDS011;70799;48.000;10.584;2023-11-21T01:52:36;6.07;;;0.50;;
81336;SDS011;70799;48.000;10.584;2023-11-21T01:55:13;3.22;;;0.45;;
81336;SDS011;70799;48.000;10.584;2023-11-21T01:57:59;4.63;;;0.60;;
81336;SDS011;70799;48.000;10.584;2023-11-21T02:00:36;2.55;;;0.50;;
81336;SDS011;70799;48.000;10.584;2023-11-21T02:05:48;4.22;;;0.40;;
81336;SDS011;70799;48.000;10.584;2023-11-21T02:08:25;2.03;;;0.57;;
81336;SDS011;70799;48.000;10.584;2023-11-21T02:11:01;4.57;;;0.40;;
81336;SDS011;70799;48.000;10.584;2023-11-21T02:13:38;2.50;;;0.43;;
81336;SDS011;70799;48.000;10.584;2023-11-21T02:16:18;2.25;;;0.47;;
81336;SDS011;70799;48.000;10.584;2023-11-21T02:21:30;2.80;;;0.55;;
81336;SDS011;70799;48.000;10.584;2023-11-21T02:24:09;6.60;;;0.70;;
81336;SDS011;70799;48.000;10.584;2023-11-21T02:26:45;1.15;;;0.20;;
81336;SDS011;70799;48.000;10.584;2023-11-21T02:29:23;1.85;;;0.50;;
81336;SDS011;70799;48.000;10.584;2023-11-21T02:32:00;1.98;;;0.30;;
81336;SDS011;70799;48.000;10.584;2023-11-21T02:37:13;1.48;;;0.63;;
81336;SDS011;70799;48.000;10.584;2023-11-21T02:42:25;2.13;;;0.32;;
81336;SDS011;70799;48.000;10.584;2023-11-21T02:45:01;2.13;;;0.80;;
81336;SDS011;70799;48.000;10.584;2023-11-21T02:47:38;3.92;;;0.55;;
81336;SDS011;70799;48.000;10.584;2023-11-21T02:50:14;4.10;;;0.70;;
81336;SDS011;70799;48.000;10.584;2023-11-21T02:52:51;2.90;;;0.82;;
81336;SDS011;70799;48.000;10.584;2023-11-21T02:55:29;4.22;;;0.38;;
81336;SDS011;70799;48.000;10.584;2023-11-21T02:58:06;2.17;;;0.43;;
81336;SDS011;70799;48.000;10.584;2023-11-21T03:00:42;4.70;;;0.50;;
81336;SDS011;70799;48.000;10.584;2023-11-21T03:05:55;3.05;;;0.60;;
81336;SDS011;70799;48.000;10.584;2023-11-21T03:08:32;6.82;;;0.77;;
81336;SDS011;70799;48.000;10.584;2023-11-21T03:13:44;1.52;;;0.40;;
81336;SDS011;70799;48.000;10.584;2023-11-21T03:18:56;5.57;;;1.00;;
81336;SDS011;70799;48.000;10.584;2023-11-21T03:21:34;2.63;;;0.50;;
81336;SDS011;70799;48.000;10.584;2023-11-21T03:24:10;2.65;;;0.63;;
81336;SDS011;70799;48.000;10.584;2023-11-21T03:26:49;2.50;;;0.85;;
81336;SDS011;70799;48.000;10.584;2023-11-21T03:29:25;5.32;;;0.60;;
81336;SDS011;70799;48.000;10.584;2023-11-21T03:32:02;4.15;;;0.88;;
81336;SDS011;70799;48.000;10.584;2023-11-21T03:35:00;2.80;;;0.45;;
81336;SDS011;70799;48.000;10.584;2023-11-21T03:37:35;4.40;;;0.80;;
81336;SDS011;70799;48.000;10.584;2023-11-21T03:40:14;3.08;;;0.57;;
81336;SDS011;70799;48.000;10.584;2023-11-21T03:45:26;5.45;;;0.70;;
81336;SDS011;70799;48.000;10.584;2023-11-21T03:48:01;4.03;;;0.60;;
81336;SDS011;70799;48.000;10.584;2023-11-21T03:50:42;4.70;;;1.15;;
81336;SDS011;70799;48.000;10.584;2023-11-21T03:53:19;3.30;;;0.50;;
81336;SDS011;70799;48.000;10.584;2023-11-21T03:55:55;4.32;;;0.65;;
81336;SDS011;70799;48.000;10.584;2023-11-21T03:58:33;4.18;;;0.40;;
81336;SDS011;70799;48.000;10.584;2023-11-21T04:03:45;3.78;;;0.52;;
81336;SDS011;70799;48.000;10.584;2023-11-21T04:06:21;2.58;;;0.60;;
81336;SDS011;70799;48.000;10.584;2023-11-21T04:11:33;3.47;;;0.40;;
81336;SDS011;70799;48.000;10.584;2023-11-21T04:16:45;1.63;;;0.35;;
81336;SDS011;70799;48.000;10.584;2023-11-21T04:19:21;1.58;;;0.20;;
81336;SDS011;70799;48.000;10.584;2023-11-21T04:24:33;3.00;;;0.30;;
81336;SDS011;70799;48.000;10.584;2023-11-21T04:27:09;3.17;;;0.38;;
81336;SDS011;70799;48.000;10.584;2023-11-21T04:29:46;2.17;;;0.30;;
81336;SDS011;70799;48.000;10.584;2023-11-21T04:32:22;1.10;;;0.28;;
81336;SDS011;70799;48.000;10.584;2023-11-21T04:37:34;2.28;;;0.20;;
81336;SDS011;70799;48.000;10.584;2023-11-21T04:42:46;1.65;;;0.30;;
81336;SDS011;70799;48.000;10.584;2023-11-21T04:45:22;1.52;;;0.17;;
81336;SDS011;70799;48.000;10.584;2023-11-21T04:47:58;0.55;;;0.10;;
81336;SDS011;70799;48.000;10.584;2023-11-21T04:50:34;1.25;;;0.20;;
81336;SDS011;70799;48.000;10.584;2023-11-21T04:53:10;1.48;;;0.28;;
81336;SDS011;70799;48.000;10.584;2023-11-21T04:55:47;0.52;;;0.20;;
81336;SDS011;70799;48.000;10.584;2023-11-21T04:58:23;2.42;;;0.30;;
81336;SDS011;70799;48.000;10.584;2023-11-21T05:00:59;1.38;;;0.22;;
81336;SDS011;70799;48.000;10.584;2023-11-21T05:03:39;1.40;;;0.50;;
81336;SDS011;70799;48.000;10.584;2023-11-21T05:06:15;0.63;;;0.20;;
81336;SDS011;70799;48.000;10.584;2023-11-21T05:11:28;2.28;;;0.28;;
81336;SDS011;70799;48.000;10.584;2023-11-21T05:14:04;0.98;;;0.20;;
81336;SDS011;70799;48.000;10.584;2023-11-21T05:16:40;2.90;;;0.30;;
81336;SDS011;70799;48.000;10.584;2023-11-21T05:19:16;0.88;;;0.20;;
81336;SDS011;70799;48.000;10.584;2023-11-21T05:21:53;3.00;;;0.30;;
81336;SDS011;70799;48.000;10.584;2023-11-21T05:27:05;2.35;;;0.20;;
81336;SDS011;70799;48.000;10.584;2023-11-21T05:29:41;0.88;;;0.30;;
81336;SDS011;70799;48.000;10.584;2023-11-21T05:32:17;1.52;;;0.40;;
81336;SDS011;70799;48.000;10.584;2023-11-21T05:34:54;1.98;;;0.32;;
81336;SDS011;70799;48.000;10.584;2023-11-21T05:37:32;0.68;;;0.38;;
81336;SDS011;70799;48.000;10.584;2023-11-21T05:42:44;1.85;;;0.22;;
81336;SDS011;70799;48.000;10.584;2023-11-21T05:47:58;0.65;;;0.20;;
81336;SDS011;70799;48.000;10.584;2023-11-21T05:54:42;4.13;;;0.35;;
81336;SDS011;70799;48.000;10.584;2023-11-21T05:57:18;2.83;;;0.38;;
81336;SDS011;70799;48.000;10.584;2023-11-21T05:59:54;3.13;;;0.63;;
81336;SDS011;70799;48.000;10.584;2023-11-21T06:02:35;1.10;;;0.38;;
81336;SDS011;70799;48.000;10.584;2023-11-21T06:05:14;2.20;;;0.30;;
81336;SDS011;70799;48.000;10.584;2023-11-21T06:07:55;0.90;;;0.28;;
81336;SDS011;70799;48.000;10.584;2023-11-21T06:10:34;2.03;;;0.30;;
81336;SDS011;70799;48.000;10.584;2023-11-21T06:13:11;4.10;;;0.40;;
81336;SDS011;70799;48.000;10.584;2023-11-21T06:15:47;2.13;;;0.38;;
81336;SDS011;70799;48.000;10.584;2023-11-21T06:20:59;1.25;;;0.30;;
81336;SDS011;70799;48.000;10.584;2023-11-21T06:23:36;1.85;;;0.30;;
81336;SDS011;70799;48.000;10.584;2023-11-21T06:26:12;3.20;;;0.30;;
81336;SDS011;70799;48.000;10.584;2023-11-21T06:28:48;1.20;;;0.30;;
81336;SDS011;70799;48.000;10.584;2023-11-21T06:31:25;2.83;;;0.30;;
81336;SDS011;70799;48.000;10.584;2023-11-21T06:34:01;4.32;;;0.50;;
81336;SDS011;70799;48.000;10.584;2023-11-21T06:36:37;2.92;;;0.40;;
81336;SDS011;70799;48.000;10.584;2023-11-21T06:41:49;3.88;;;1.10;;
81336;SDS011;70799;48.000;10.584;2023-11-21T06:44:26;2.08;;;0.73;;
81336;SDS011;70799;48.000;10.584;2023-11-21T06:47:02;3.00;;;0.60;;
81336;SDS011;70799;48.000;10.584;2023-11-21T06:49:38;2.70;;;0.75;;
81336;SDS011;70799;48.000;10.584;2023-11-21T06:52:14;3.70;;;0.63;;
81336;SDS011;70799;48.000;10.584;2023-11-21T06:54:50;4.22;;;0.88;;
81336;SDS011;70799;48.000;10.584;2023-11-21T06:57:26;3.92;;;0.75;;
81336;SDS011;70799;48.000;10.584;2023-11-21T07:00:02;3.35;;;0.88;;
81336;SDS011;70799;48.000;10.584;2023-11-21T07:02:41;3.08;;;0.80;;
81336;SDS011;70799;48.000;10.584;2023-11-21T07:05:21;5.03;;;1.67;;
81336;SDS011;70799;48.000;10.584;2023-11-21T07:10:36;6.40;;;1.30;;
81336;SDS011;70799;48.000;10.584;2023-11-21T07:13:12;3.67;;;0.88;;
81336;SDS011;70799;48.000;10.584;2023-11-21T07:15:48;1.50;;;0.68;;
81336;SDS011;70799;48.000;10.584;2023-11-21T07:18:24;4.57;;;0.80;;
81336;SDS011;70799;48.000;10.584;2023-11-21T07:23:36;7.30;;;0.80;;
81336;SDS011;70799;48.000;10.584;2023-11-21T07:26:13;4.30;;;1.20;;
81336;SDS011;70799;48.000;10.584;2023-11-21T07:28:49;2.80;;;0.77;;
81336;SDS011;70799;48.000;10.584;2023-11-21T07:31:25;2.92;;;0.77;;
81336;SDS011;70799;48.000;10.584;2023-11-21T07:34:01;3.17;;;0.43;;
81336;SDS011;70799;48.000;10.584;2023-11-21T07:36:37;1.67;;;0.57;;
81336;SDS011;70799;48.000;10.584;2023-11-21T07:39:14;4.07;;;1.02;;
81336;SDS011;70799;48.000;10.584;2023-11-21T07:41:50;2.90;;;0.70;;
81336;SDS011;70799;48.000;10.584;2023-11-21T07:44:26;3.58;;;0.68;;
81336;SDS011;70799;48.000;10.584;2023-11-21T07:47:02;2.28;;;0.63;;
81336;SDS011;70799;48.000;10.584;2023-11-21T07:49:38;2.45;;;0.68;;
81336;SDS011;70799;48.000;10.584;2023-11-21T07:52:16;3.67;;;0.77;;
81336;SDS011;70799;48.000;10.584;2023-11-21T07:54:53;3.58;;;0.70;;
81336;SDS011;70799;48.000;10.584;2023-11-21T07:57:29;4.10;;;0.70;;
81336;SDS011;70799;48.000;10.584;2023-11-21T08:02:44;2.00;;;0.73;;
81336;SDS011;70799;48.000;10.584;2023-11-21T08:05:20;4.57;;;1.02;;
81336;SDS011;70799;48.000;10.584;2023-11-21T08:08:09;3.72;;;0.90;;
81336;SDS011;70799;48.000;10.584;2023-11-21T08:10:46;1.60;;;0.70;;
81336;SDS011;70799;48.000;10.584;2023-11-21T08:13:28;1.73;;;0.57;;
81336;SDS011;70799;48.000;10.584;2023-11-21T08:16:05;1.95;;;0.70;;
81336;SDS011;70799;48.000;10.584;2023-11-21T08:18:41;2.15;;;0.80;;
81336;SDS011;70799;48.000;10.584;2023-11-21T08:21:17;5.15;;;0.88;;
81336;SDS011;70799;48.000;10.584;2023-11-21T08:23:55;2.80;;;0.70;;
81336;SDS011;70799;48.000;10.584;2023-11-21T08:26:33;3.13;;;0.65;;
81336;SDS011;70799;48.000;10.584;2023-11-21T08:29:09;2.28;;;0.85;;
81336;SDS011;70799;48.000;10.584;2023-11-21T08:34:21;1.42;;;0.63;;
81336;SDS011;70799;48.000;10.584;2023-11-21T08:36:58;3.08;;;0.90;;
81336;SDS011;70799;48.000;10.584;2023-11-21T08:39:34;1.48;;;0.65;;
81336;SDS011;70799;48.000;10.584;2023-11-21T08:42:12;2.67;;;0.75;;
81336;SDS011;70799;48.000;10.584;2023-11-21T08:44:49;2.72;;;0.95;;
81336;SDS011;70799;48.000;10.584;2023-11-21T08:47:26;3.40;;;1.23;;
81336;SDS011;70799;48.000;10.584;2023-11-21T08:50:06;3.13;;;0.80;;
81336;SDS011;70799;48.000;10.584;2023-11-21T08:52:44;3.03;;;1.00;;
81336;SDS011;70799;48.000;10.584;2023-11-21T08:55:21;3.40;;;1.50;;
81336;SDS011;70799;48.000;10.584;2023-11-21T08:57:57;2.15;;;0.70;;
81336;SDS011;70799;48.000;10.584;2023-11-21T09:00:34;3.53;;;1.08;;
81336;SDS011;70799;48.000;10.584;2023-11-21T09:03:10;2.28;;;0.70;;
81336;SDS011;70799;48.000;10.584;2023-11-21T09:05:47;1.45;;;0.90;;
81336;SDS011;70799;48.000;10.584;2023-11-21T09:08:23;3.13;;;0.80;;
81336;SDS011;70799;48.000;10.584;2023-11-21T09:11:02;3.38;;;0.90;;
81336;SDS011;70799;48.000;10.584;2023-11-21T09:13:40;2.38;;;1.20;;
81336;SDS011;70799;48.000;10.584;2023-11-21T09:16:16;3.22;;;0.93;;
81336;SDS011;70799;48.000;10.584;2023-11-21T09:18:52;3.10;;;0.68;;
81336;SDS011;70799;48.000;10.584;2023-11-21T09:21:32;4.47;;;0.85;;
81336;SDS011;70799;48.000;10.584;2023-11-21T09:24:08;4.45;;;0.88;;
81336;SDS011;70799;48.000;10.584;2023-11-21T09:26:44;3.70;;;0.82;;
81336;SDS011;70799;48.000;10.584;2023-11-21T09:31:56;2.00;;;0.70;;
81336;SDS011;70799;48.000;10.584;2023-11-21T09:34:33;1.42;;;0.55;;
81336;SDS011;70799;48.000;10.584;2023-11-21T09:37:11;2.15;;;0.80;;
81336;SDS011;70799;48.000;10.584;2023-11-21T09:42:23;2.13;;;0.88;;
81336;SDS011;70799;48.000;10.584;2023-11-21T09:47:46;4.10;;;0.93;;
81336;SDS011;70799;48.000;10.584;2023-11-21T09:50:22;1.50;;;1.23;;
81336;SDS011;70799;48.000;10.584;2023-11-21T09:53:18;4.35;;;0.95;;
81336;SDS011;70799;48.000;10.584;2023-11-21T09:55:56;2.58;;;1.25;;
81336;SDS011;70799;48.000;10.584;2023-11-21T09:58:34;4.25;;;1.35;;
81336;SDS011;70799;48.000;10.584;2023-11-21T10:01:10;2.38;;;0.82;;
81336;SDS011;70799;48.000;10.584;2023-11-21T10:03:46;2.08;;;0.60;;
81336;SDS011;70799;48.000;10.584;2023-11-21T10:06:23;2.83;;;1.10;;
81336;SDS011;70799;48.000;10.584;2023-11-21T10:09:01;2.33;;;0.90;;
81336;SDS011;70799;48.000;10.584;2023-11-21T10:11:43;2.60;;;1.20;;
81336;SDS011;70799;48.000;10.584;2023-11-21T10:14:19;4.82;;;1.25;;
81336;SDS011;70799;48.000;10.584;2023-11-21T10:16:57;1.88;;;0.80;;
81336;SDS011;70799;48.000;10.584;2023-11-21T10:19:35;1.55;;;0.90;;
81336;SDS011;70799;48.000;10.584;2023-11-21T10:22:12;2.75;;;0.73;;
81336;SDS011;70799;48.000;10.584;2023-11-21T10:24:51;1.55;;;1.10;;
81336;SDS011;70799;48.000;10.584;2023-11-21T10:27:28;2.28;;;1.00;;
81336;SDS011;70799;48.000;10.584;2023-11-21T10:30:04;1.92;;;1.10;;
81336;SDS011;70799;48.000;10.584;2023-11-21T10:32:44;2.35;;;1.02;;
81336;SDS011;70799;48.000;10.584;2023-11-21T10:35:20;3.40;;;0.90;;
81336;SDS011;70799;48.000;10.584;2023-11-21T10:37:59;1.92;;;1.00;;
81336;SDS011;70799;48.000;10.584;2023-11-21T10:40:42;2.95;;;0.82;;
81336;SDS011;70799;48.000;10.584;2023-11-21T10:43:20;2.08;;;0.95;;
81336;SDS011;70799;48.000;10.584;2023-11-21T10:46:02;3.38;;;0.73;;
81336;SDS011;70799;48.000;10.584;2023-11-21T10:48:38;1.95;;;0.90;;
81336;SDS011;70799;48.000;10.584;2023-11-21T10:51:17;1.50;;;0.65;;
81336;SDS011;70799;48.000;10.584;2023-11-21T10:53:53;2.38;;;0.63;;
81336;SDS011;70799;48.000;10.584;2023-11-21T10:56:29;2.80;;;0.63;;
81336;SDS011;70799;48.000;10.584;2023-11-21T10:59:10;1.95;;;0.68;;
81336;SDS011;70799;48.000;10.584;2023-11-21T11:01:47;1.52;;;0.80;;
81336;SDS011;70799;48.000;10.584;2023-11-21T11:04:25;3.95;;;1.10;;
81336;SDS011;70799;48.000;10.584;2023-11-21T11:07:03;3.92;;;1.75;;
81336;SDS011;70799;48.000;10.584;2023-11-21T11:09:41;5.47;;;2.60;;
81336;SDS011;70799;48.000;10.584;2023-11-21T11:12:21;5.30;;;2.22;;
81336;SDS011;70799;48.000;10.584;2023-11-21T11:14:58;4.50;;;2.20;;
81336;SDS011;70799;48.000;10.584;2023-11-21T11:17:37;4.05;;;2.20;;
81336;SDS011;70799;48.000;10.584;2023-11-21T11:20:14;4.03;;;1.75;;
81336;SDS011;70799;48.000;10.584;2023-11-21T11:29:03;2.53;;;1.10;;
81336;SDS011;70799;48.000;10.584;2023-11-21T11:32:05;1.63;;;0.90;;
81336;SDS011;70799;48.000;10.584;2023-11-21T11:35:01;2.38;;;1.10;;
81336;SDS011;70799;48.000;10.584;2023-11-21T11:37:49;3.85;;;1.08;;
81336;SDS011;70799;48.000;10.584;2023-11-21T11:40:39;2.72;;;1.05;;
81336;SDS011;70799;48.000;10.584;2023-11-21T11:43:24;2.67;;;1.00;;
81336;SDS011;70799;48.000;10.584;2023-11-21T11:46:03;2.13;;;1.10;;
81336;SDS011;70799;48.000;10.584;2023-11-21T11:48:40;5.22;;;2.10;;
81336;SDS011;70799;48.000;10.584;2023-11-21T11:51:17;1.48;;;0.60;;
81336;SDS011;70799;48.000;10.584;2023-11-21T11:53:53;2.97;;;1.70;;
81336;SDS011;70799;48.000;10.584;2023-11-21T11:56:33;9.32;;;5.40;;
81336;SDS011;70799;48.000;10.584;2023-11-21T11:59:10;11.30;;;5.97;;
81336;SDS011;70799;48.000;10.584;2023-11-21T12:01:46;9.02;;;5.20;;
81336;SDS011;70799;48.000;10.584;2023-11-21T12:04:23;4.05;;;2.15;;
81336;SDS011;70799;48.000;10.584;2023-11-21T12:07:04;3.95;;;2.15;;
81336;SDS011;70799;48.000;10.584;2023-11-21T12:09:40;6.20;;;2.40;;
81336;SDS011;70799;48.000;10.584;2023-11-21T12:12:17;12.68;;;5.22;;
81336;SDS011;70799;48.000;10.584;2023-11-21T12:17:29;7.40;;;3.03;;
81336;SDS011;70799;48.000;10.584;2023-11-21T12:20:07;6.43;;;2.85;;
81336;SDS011;70799;48.000;10.584;2023-11-21T12:25:23;5.18;;;2.50;;
81336;SDS011;70799;48.000;10.584;2023-11-21T12:28:02;3.75;;;2.22;;
81336;SDS011;70799;48.000;10.584;2023-11-21T12:30:38;4.32;;;1.67;;
81336;SDS011;70799;48.000;10.584;2023-11-21T12:33:14;3.83;;;2.00;;
81336;SDS011;70799;48.000;10.584;2023-11-21T12:35:50;3.47;;;1.80;;
81336;SDS011;70799;48.000;10.584;2023-11-21T12:41:09;5.45;;;1.65;;
81336;SDS011;70799;48.000;10.584;2023-11-21T12:43:45;2.05;;;0.98;;
81336;SDS011;70799;48.000;10.584;2023-11-21T12:46:22;1.88;;;1.05;;
81336;SDS011;70799;48.000;10.584;2023-11-21T12:49:01;2.97;;;1.02;;
81336;SDS011;70799;48.000;10.584;2023-11-21T12:51:38;1.90;;;1.08;;
81336;SDS011;70799;48.000;10.584;2023-11-21T12:54:14;2.10;;;1.02;;
81336;SDS011;70799;48.000;10.584;2023-11-21T12:56:50;2.70;;;1.30;;
81336;SDS011;70799;48.000;10.584;2023-11-21T12:59:26;2.95;;;1.30;;
81336;SDS011;70799;48.000;10.584;2023-11-21T13:02:04;4.13;;;1.17;;
81336;SDS011;70799;48.000;10.584;2023-11-21T13:04:41;3.13;;;1.30;;
81336;SDS011;70799;48.000;10.584;2023-11-21T13:07:24;1.90;;;1.27;;
81336;SDS011;70799;48.000;10.584;2023-11-21T13:10:00;3.53;;;1.30;;
81336;SDS011;70799;48.000;10.584;2023-11-21T13:12:43;2.63;;;1.30;;
81336;SDS011;70799;48.000;10.584;2023-11-21T13:15:21;4.65;;;1.30;;
81336;SDS011;70799;48.000;10.584;2023-11-21T13:17:57;1.77;;;1.02;;
81336;SDS011;70799;48.000;10.584;2023-11-21T13:20:34;2.20;;;1.15;;
81336;SDS011;70799;48.000;10.584;2023-11-21T13:23:12;2.38;;;1.10;;
81336;SDS011;70799;48.000;10.584;2023-11-21T13:25:48;3.30;;;1.50;;
81336;SDS011;70799;48.000;10.584;2023-11-21T13:28:33;3.90;;;1.58;;
81336;SDS011;70799;48.000;10.584;2023-11-21T13:31:21;4.30;;;1.48;;
81336;SDS011;70799;48.000;10.584;2023-11-21T13:33:59;4.97;;;1.60;;
81336;SDS011;70799;48.000;10.584;2023-11-21T13:36:38;3.65;;;1.60;;
81336;SDS011;70799;48.000;10.584;2023-11-21T13:39:14;2.30;;;1.30;;
81336;SDS011;70799;48.000;10.584;2023-11-21T13:41:51;3.33;;;1.63;;
81336;SDS011;70799;48.000;10.584;2023-11-21T13:44:29;2.95;;;1.00;;
81336;SDS011;70799;48.000;10.584;2023-11-21T13:47:10;3.45;;;1.25;;
81336;SDS011;70799;48.000;10.584;2023-11-21T13:49:46;2.45;;;1.10;;
81336;SDS011;70799;48.000;10.584;2023-11-21T13:52:22;3.33;;;1.30;;
81336;SDS011;70799;48.000;10.584;2023-11-21T13:55:02;2.97;;;1.13;;
81336;SDS011;70799;48.000;10.584;2023-11-21T13:57:43;2.45;;;1.00;;
81336;SDS011;70799;48.000;10.584;2023-11-21T14:00:21;2.72;;;1.00;;
81336;SDS011;70799;48.000;10.584;2023-11-21T14:03:10;1.58;;;0.80;;
81336;SDS011;70799;48.000;10.584;2023-11-21T14:05:54;1.50;;;0.73;;
81336;SDS011;70799;48.000;10.584;2023-11-21T14:08:33;2.03;;;0.80;;
81336;SDS011;70799;48.000;10.584;2023-11-21T14:11:09;2.17;;;0.95;;
81336;SDS011;70799;48.000;10.584;2023-11-21T14:13:49;1.58;;;0.85;;
81336;SDS011;70799;48.000;10.584;2023-11-21T14:16:26;0.95;;;0.68;;
81336;SDS011;70799;48.000;10.584;2023-11-21T14:21:48;0.95;;;0.50;;
81336;SDS011;70799;48.000;10.584;2023-11-21T14:24:25;2.22;;;0.60;;
81336;SDS011;70799;48.000;10.584;2023-11-21T14:27:02;3.60;;;0.82;;
81336;SDS011;70799;48.000;10.584;2023-11-21T14:29:38;4.88;;;1.60;;
81336;SDS011;70799;48.000;10.584;2023-11-21T14:32:17;3.38;;;1.40;;
81336;SDS011;70799;48.000;10.584;2023-11-21T14:34:54;4.82;;;1.98;;
81336;SDS011;70799;48.000;10.584;2023-11-21T14:37:30;6.38;;;2.35;;
81336;SDS011;70799;48.000;10.584;2023-11-21T14:40:15;6.72;;;2.95;;
81336;SDS011;70799;48.000;10.584;2023-11-21T14:42:53;3.30;;;1.08;;
81336;SDS011;70799;48.000;10.584;2023-11-21T14:45:29;3.63;;;1.23;;
81336;SDS011;70799;48.000;10.584;2023-11-21T14:48:06;3.33;;;0.90;;
81336;SDS011;70799;48.000;10.584;2023-11-21T14:50:48;1.00;;;0.40;;
81336;SDS011;70799;48.000;10.584;2023-11-21T14:53:46;1.27;;;0.43;;
81336;SDS011;70799;48.000;10.584;2023-11-21T14:56:26;2.63;;;0.70;;
81336;SDS011;70799;48.000;10.584;2023-11-21T14:59:06;1.35;;;0.70;;
81336;SDS011;70799;48.000;10.584;2023-11-21T15:01:48;2.03;;;0.73;;
81336;SDS011;70799;48.000;10.584;2023-11-21T15:04:28;4.20;;;0.90;;
81336;SDS011;70799;48.000;10.584;2023-11-21T15:07:09;2.28;;;0.70;;
81336;SDS011;70799;48.000;10.584;2023-11-21T15:09:45;0.73;;;0.43;;
81336;SDS011;70799;48.000;10.584;2023-11-21T15:12:19;2.17;;;0.75;;
81336;SDS011;70799;48.000;10.584;2023-11-21T15:14:58;2.13;;;0.60;;
81336;SDS011;70799;48.000;10.584;2023-11-21T15:17:40;2.30;;;1.00;;
81336;SDS011;70799;48.000;10.584;2023-11-21T15:20:17;3.00;;;1.42;;
81336;SDS011;70799;48.000;10.584;2023-11-21T15:22:55;2.05;;;0.82;;
81336;SDS011;70799;48.000;10.584;2023-11-21T15:25:32;1.60;;;0.63;;
81336;SDS011;70799;48.000;10.584;2023-11-21T15:28:09;3.13;;;0.90;;
81336;SDS011;70799;48.000;10.584;2023-11-21T15:30:45;1.63;;;0.77;;
81336;SDS011;70799;48.000;10.584;2023-11-21T15:33:23;1.85;;;1.08;;
81336;SDS011;70799;48.000;10.584;2023-11-21T15:35:59;2.05;;;1.25;;
81336;SDS011;70799;48.000;10.584;2023-11-21T15:38:37;3.53;;;1.27;;
81336;SDS011;70799;48.000;10.584;2023-11-21T15:41:13;1.73;;;1.00;;
81336;SDS011;70799;48.000;10.584;2023-11-21T15:43:49;3.15;;;1.60;;
81336;SDS011;70799;48.000;10.584;2023-11-21T15:49:02;2.15;;;0.90;;
81336;SDS011;70799;48.000;10.584;2023-11-21T15:51:44;2.78;;;0.73;;
81336;SDS011;70799;48.000;10.584;2023-11-21T15:54:25;2.38;;;0.65;;
81336;SDS011;70799;48.000;10.584;2023-11-21T15:57:02;2.15;;;0.60;;
81336;SDS011;70799;48.000;10.584;2023-11-21T15:59:40;1.85;;;0.77;;
81336;SDS011;70799;48.000;10.584;2023-11-21T16:02:17;1.55;;;0.63;;
81336;SDS011;70799;48.000;10.584;2023-11-21T16:07:29;2.55;;;0.95;;
81336;SDS011;70799;48.000;10.584;2023-11-21T16:10:07;0.93;;;0.63;;
81336;SDS011;70799;48.000;10.584;2023-11-21T16:12:46;2.47;;;0.70;;
81336;SDS011;70799;48.000;10.584;2023-11-21T16:15:23;1.40;;;0.52;;
81336;SDS011;70799;48.000;10.584;2023-11-21T16:18:00;2.00;;;0.80;;
81336;SDS011;70799;48.000;10.584;2023-11-21T16:20:37;1.80;;;0.90;;
81336;SDS011;70799;48.000;10.584;2023-11-21T16:23:13;2.70;;;0.95;;
81336;SDS011;70799;48.000;10.584;2023-11-21T16:25:49;1.42;;;0.95;;
81336;SDS011;70799;48.000;10.584;2023-11-21T16:28:27;1.95;;;0.82;;
81336;SDS011;70799;48.000;10.584;2023-11-21T16:33:38;2.50;;;0.52;;
81336;SDS011;70799;48.000;10.584;2023-11-21T16:38:50;2.17;;;0.90;;
81336;SDS011;70799;48.000;10.584;2023-11-21T16:41:26;2.47;;;0.77;;
81336;SDS011;70799;48.000;10.584;2023-11-21T16:44:03;2.70;;;1.20;;
81336;SDS011;70799;48.000;10.584;2023-11-21T16:46:39;2.60;;;1.17;;
81336;SDS011;70799;48.000;10.584;2023-11-21T16:49:15;2.25;;;1.10;;
81336;SDS011;70799;48.000;10.584;2023-11-21T16:51:51;3.05;;;1.38;;
81336;SDS011;70799;48.000;10.584;2023-11-21T16:54:27;2.70;;;1.10;;
81336;SDS011;70799;48.000;10.584;2023-11-21T16:59:40;2.42;;;1.10;;
81336;SDS011;70799;48.000;10.584;2023-11-21T17:02:22;2.63;;;1.13;;
81336;SDS011;70799;48.000;10.584;2023-11-21T17:07:34;2.85;;;1.17;;
81336;SDS011;70799;48.000;10.584;2023-11-21T17:12:46;5.00;;;1.70;;
81336;SDS011;70799;48.000;10.584;2023-11-21T17:15:23;2.70;;;1.30;;
81336;SDS011;70799;48.000;10.584;2023-11-21T17:20:37;2.22;;;1.02;;
81336;SDS011;70799;48.000;10.584;2023-11-21T17:23:13;5.68;;;1.30;;
81336;SDS011;70799;48.000;10.584;2023-11-21T17:25:49;3.80;;;1.08;;
81336;SDS011;70799;48.000;10.584;2023-11-21T17:28:25;3.05;;;1.33;;
81336;SDS011;70799;48.000;10.584;2023-11-21T17:31:02;4.55;;;1.20;;
81336;SDS011;70799;48.000;10.584;2023-11-21T17:33:38;3.15;;;1.30;;
81336;SDS011;70799;48.000;10.584;2023-11-21T17:36:14;5.60;;;2.90;;